createdAt,value
2019-01-09T00:00:03.468Z,38.8
2019-01-09T00:01:04.778Z,38.8
2019-01-09T00:02:04.015Z,38.8
2019-01-09T00:03:02.091Z,38.8
2019-01-09T00:04:03.052Z,38.7
2019-01-09T00:05:05.869Z,38.7
2019-01-09T00:06:03.595Z,38.7
2019-01-09T00:07:04.190Z,38.7
2019-01-09T00:08:10.266Z,38.7
2019-01-09T00:09:09.982Z,38.6
2019-01-09T00:10:10.261Z,38.6
2019-01-09T00:11:09.856Z,38.6
2019-01-09T00:12:14.634Z,38.6
2019-01-09T00:13:14.937Z,38.6
2019-01-09T00:14:12.399Z,38.6
2019-01-09T00:15:15.711Z,38.6
2019-01-09T00:16:13.195Z,38.6
2019-01-09T00:17:10.835Z,38.6
2019-01-09T00:18:08.054Z,38.7
2019-01-09T00:19:16.249Z,38.6
2019-01-09T00:20:14.705Z,38.6
2019-01-09T00:21:14.746Z,38.6
2019-01-09T00:22:11.950Z,38.6
2019-01-09T00:23:09.324Z,38.6
2019-01-09T00:24:06.886Z,38.6
2019-01-09T00:25:05.642Z,38.6
2019-01-09T00:26:05.441Z,38.6
2019-01-09T00:27:03.871Z,38.6
2019-01-09T00:28:02.861Z,38.6
2019-01-09T00:29:01.651Z,38.6
2019-01-09T00:30:00.958Z,38.7
2019-01-09T00:30:59.941Z,38.7
2019-01-09T00:31:58.284Z,38.7
2019-01-09T00:32:55.960Z,38.7
2019-01-09T00:33:55.482Z,38.7
2019-01-09T00:34:56.226Z,38.6
2019-01-09T00:35:53.458Z,38.6
2019-01-09T00:36:53.212Z,38.6
2019-01-09T00:37:53.021Z,38.6
2019-01-09T00:38:54.708Z,38.7
2019-01-09T00:39:51.983Z,38.7
2019-01-09T00:40:54.570Z,38.7
2019-01-09T00:41:52.087Z,38.7
2019-01-09T00:42:57.255Z,38.7
2019-01-09T00:43:54.407Z,38.7
2019-01-09T00:45:00.283Z,38.8
2019-01-09T00:46:05.107Z,38.7
2019-01-09T00:47:02.555Z,38.8
2019-01-09T00:48:00.275Z,38.7
2019-01-09T00:48:58.020Z,38.8
2019-01-09T00:49:55.917Z,38.8
2019-01-09T00:50:55.703Z,38.8
2019-01-09T00:51:55.815Z,38.8
2019-01-09T00:52:56.413Z,38.7
2019-01-09T00:53:54.450Z,38.7
2019-01-09T00:54:56.134Z,38.7
2019-01-09T00:55:55.955Z,38.7
2019-01-09T00:56:56.715Z,38.8
2019-01-09T00:57:55.344Z,38.8
2019-01-09T00:58:56.201Z,38.8
2019-01-09T00:59:54.076Z,38.7
2019-01-09T01:00:51.460Z,38.8
2019-01-09T01:01:55.999Z,38.7
2019-01-09T01:02:53.335Z,38.6
2019-01-09T01:03:50.769Z,38.7
2019-01-09T01:04:55.182Z,38.8
2019-01-09T01:05:53.332Z,38.8
2019-01-09T01:06:55.501Z,38.8
2019-01-09T01:07:53.875Z,38.8
2019-01-09T01:08:51.245Z,38.8
2019-01-09T01:09:49.743Z,38.8
2019-01-09T01:10:50.559Z,38.7
2019-01-09T01:11:48.692Z,38.8
2019-01-09T01:12:51.109Z,38.7
2019-01-09T01:13:52.553Z,38.7
2019-01-09T01:14:57.924Z,38.7
2019-01-09T01:15:57.223Z,38.7
2019-01-09T01:16:54.435Z,38.7
2019-01-09T01:17:53.344Z,38.6
2019-01-09T01:18:50.662Z,38.7
2019-01-09T01:19:47.720Z,38.8
2019-01-09T01:20:52.480Z,38.7
2019-01-09T01:21:50.858Z,38.7
2019-01-09T01:22:56.187Z,38.8
2019-01-09T01:23:57.398Z,38.8
2019-01-09T01:25:03.960Z,38.8
2019-01-09T01:26:03.939Z,38.8
2019-01-09T01:27:01.832Z,38.8
2019-01-09T01:28:03.031Z,38.7
2019-01-09T01:29:03.459Z,38.8
2019-01-09T01:30:04.071Z,38.7
2019-01-09T01:31:09.110Z,38.8
2019-01-09T01:32:08.292Z,38.8
2019-01-09T01:33:06.559Z,38.7
2019-01-09T01:34:04.859Z,38.8
2019-01-09T01:35:02.260Z,38.7
2019-01-09T01:36:00.300Z,38.7
2019-01-09T01:36:57.976Z,38.7
2019-01-09T01:37:57.453Z,38.7
2019-01-09T01:39:01.682Z,38.7
2019-01-09T01:40:12.061Z,38.7
2019-01-09T01:41:11.760Z,38.7
2019-01-09T01:42:09.600Z,38.7
2019-01-09T01:43:10.630Z,38.7
2019-01-09T01:44:09.320Z,38.8
2019-01-09T01:45:07.304Z,38.8
2019-01-09T01:46:06.264Z,38.8
2019-01-09T01:47:04.336Z,38.8
2019-01-09T01:48:01.726Z,38.7
2019-01-09T01:48:59.644Z,38.8
2019-01-09T01:50:07.168Z,38.8
2019-01-09T01:51:09.537Z,38.8
2019-01-09T01:52:06.459Z,38.8
2019-01-09T01:53:04.912Z,38.8
2019-01-09T01:54:06.515Z,38.8
2019-01-09T01:55:05.358Z,38.8
2019-01-09T01:56:07.854Z,38.8
2019-01-09T01:57:04.910Z,38.8
2019-01-09T01:58:04.371Z,38.8
2019-01-09T01:59:11.476Z,38.7
2019-01-09T02:00:08.313Z,38.7
2019-01-09T02:01:08.053Z,38.8
2019-01-09T02:02:19.052Z,38.7
2019-01-09T02:03:17.371Z,38.8
2019-01-09T02:04:14.689Z,38.8
2019-01-09T02:05:11.802Z,38.8
2019-01-09T02:06:09.025Z,38.8
2019-01-09T02:07:10.900Z,38.7
2019-01-09T02:08:09.214Z,38.8
2019-01-09T02:09:06.302Z,38.8
2019-01-09T02:10:04.751Z,38.8
2019-01-09T02:11:03.288Z,38.8
2019-01-09T02:12:02.661Z,38.8
2019-01-09T02:13:07.485Z,38.8
2019-01-09T02:14:07.587Z,38.8
2019-01-09T02:15:11.385Z,38.8
2019-01-09T02:16:13.943Z,38.8
2019-01-09T02:17:12.244Z,38.8
2019-01-09T02:18:13.053Z,38.8
2019-01-09T02:19:10.227Z,38.8
2019-01-09T02:20:13.388Z,38.8
2019-01-09T02:21:10.731Z,38.8
2019-01-09T02:22:09.552Z,38.8
2019-01-09T02:23:08.141Z,38.8
2019-01-09T02:24:12.410Z,38.8
2019-01-09T02:25:11.546Z,38.9
2019-01-09T02:26:10.002Z,38.8
2019-01-09T02:27:07.048Z,38.8
2019-01-09T02:28:12.637Z,38.8
2019-01-09T02:29:09.443Z,38.8
2019-01-09T02:30:11.952Z,38.8
2019-01-09T02:31:11.231Z,38.8
2019-01-09T02:32:08.414Z,38.8
2019-01-09T02:33:17.794Z,38.7
2019-01-09T02:34:14.507Z,38.8
2019-01-09T02:35:11.945Z,38.8
2019-01-09T02:36:13.613Z,38.8
2019-01-09T02:37:13.755Z,38.8
2019-01-09T02:38:13.409Z,38.8
2019-01-09T02:39:11.797Z,38.8
2019-01-09T02:40:09.941Z,38.8
2019-01-09T02:41:10.870Z,38.8
2019-01-09T02:42:07.822Z,38.8
2019-01-09T02:43:08.784Z,38.8
2019-01-09T02:44:06.943Z,38.8
2019-01-09T02:45:05.830Z,38.8
2019-01-09T02:46:08.059Z,38.8
2019-01-09T02:47:06.735Z,38.8
2019-01-09T02:48:03.831Z,38.8
2019-01-09T02:49:01.521Z,38.8
2019-01-09T02:49:59.211Z,38.8
2019-01-09T02:50:57.605Z,38.9
2019-01-09T02:51:56.545Z,38.9
2019-01-09T02:52:54.457Z,38.9
2019-01-09T02:53:51.957Z,38.9
2019-01-09T02:54:48.989Z,38.8
2019-01-09T02:55:46.688Z,38.8
2019-01-09T02:56:46.298Z,38.8
2019-01-09T02:57:43.434Z,38.8
2019-01-09T02:58:42.104Z,38.9
2019-01-09T02:59:40.843Z,38.9
2019-01-09T03:00:40.443Z,38.8
2019-01-09T03:01:37.513Z,38.9
2019-01-09T03:02:35.402Z,38.8
2019-01-09T03:03:35.117Z,38.8
2019-01-09T03:04:32.494Z,38.8
2019-01-09T03:05:29.640Z,38.8
2019-01-09T03:06:27.016Z,38.8
2019-01-09T03:07:26.563Z,38.8
2019-01-09T03:08:25.173Z,38.8
2019-01-09T03:09:28.147Z,38.8
2019-01-09T03:10:24.836Z,38.8
2019-01-09T03:11:21.536Z,38.8
2019-01-09T03:12:21.243Z,38.8
2019-01-09T03:13:18.212Z,38.8
2019-01-09T03:14:15.894Z,38.8
2019-01-09T03:15:21.475Z,38.8
2019-01-09T03:16:20.175Z,38.8
2019-01-09T03:17:19.508Z,38.8
2019-01-09T03:18:17.016Z,38.8
2019-01-09T03:19:17.110Z,38.8
2019-01-09T03:20:15.014Z,38.8
2019-01-09T03:21:12.539Z,38.8
2019-01-09T03:22:10.212Z,38.8
2019-01-09T03:23:09.955Z,38.8
2019-01-09T03:24:10.617Z,38.8
2019-01-09T03:25:07.818Z,38.8
2019-01-09T03:26:04.655Z,38.8
2019-01-09T03:27:03.114Z,38.8
2019-01-09T03:28:00.256Z,38.8
2019-01-09T03:28:59.429Z,38.8
2019-01-09T03:29:57.146Z,38.8
2019-01-09T03:31:05.942Z,38.8
2019-01-09T03:32:02.989Z,38.8
2019-01-09T03:32:59.975Z,38.8
2019-01-09T03:33:59.134Z,38.8
2019-01-09T03:35:00.306Z,38.8
2019-01-09T03:35:57.261Z,38.9
2019-01-09T03:36:54.223Z,38.9
2019-01-09T03:37:50.981Z,38.8
2019-01-09T03:38:55.892Z,38.9
2019-01-09T03:39:54.797Z,38.8
2019-01-09T03:40:52.075Z,38.9
2019-01-09T03:41:48.693Z,38.8
2019-01-09T03:42:53.387Z,38.8
2019-01-09T03:43:56.864Z,38.8
2019-01-09T03:44:54.549Z,38.8
2019-01-09T03:45:57.524Z,38.8
2019-01-09T03:46:55.876Z,38.8
2019-01-09T03:47:54.661Z,38.8
2019-01-09T03:49:00.682Z,38.8
2019-01-09T03:50:00.478Z,38.8
2019-01-09T03:50:58.645Z,38.8
2019-01-09T03:52:01.750Z,38.8
2019-01-09T03:53:03.680Z,38.8
2019-01-09T03:54:05.810Z,38.8
2019-01-09T03:55:15.828Z,38.8
2019-01-09T03:56:15.695Z,38.8
2019-01-09T03:57:12.820Z,38.8
2019-01-09T03:58:09.862Z,38.8
2019-01-09T03:59:08.195Z,38.8
2019-01-09T04:00:06.830Z,38.8
2019-01-09T04:01:07.724Z,38.8
2019-01-09T04:02:06.140Z,38.8
2019-01-09T04:03:08.443Z,38.8
2019-01-09T04:04:06.836Z,38.8
2019-01-09T04:05:02.011Z,38.8
2019-01-09T04:06:02.169Z,38.8
2019-01-09T04:06:59.604Z,38.8
2019-01-09T04:08:00.550Z,38.8
2019-01-09T04:08:57.284Z,38.8
2019-01-09T04:09:56.277Z,38.8
2019-01-09T04:10:54.553Z,38.8
2019-01-09T04:11:53.100Z,38.8
2019-01-09T04:12:50.686Z,38.8
2019-01-09T04:13:49.732Z,38.8
2019-01-09T04:14:46.627Z,38.8
2019-01-09T04:15:45.899Z,38.8
2019-01-09T04:16:46.002Z,38.8
2019-01-09T04:17:51.516Z,38.8
2019-01-09T04:18:49.165Z,38.8
2019-01-09T04:19:50.598Z,38.8
2019-01-09T04:20:53.918Z,38.8
2019-01-09T04:21:53.459Z,38.8
2019-01-09T04:22:53.332Z,38.8
2019-01-09T04:23:55.604Z,38.8
2019-01-09T04:24:53.829Z,38.8
2019-01-09T04:25:56.036Z,38.8
2019-01-09T04:26:58.208Z,38.8
2019-01-09T04:27:57.247Z,38.8
2019-01-09T04:28:55.037Z,38.8
2019-01-09T04:29:58.385Z,38.8
2019-01-09T04:31:04.438Z,38.8
2019-01-09T04:32:07.310Z,38.8
2019-01-09T04:33:05.531Z,38.8
2019-01-09T04:34:05.669Z,38.8
2019-01-09T04:35:04.617Z,38.8
2019-01-09T04:36:04.584Z,38.8
2019-01-09T04:37:02.117Z,38.7
2019-01-09T04:37:59.098Z,38.7
2019-01-09T04:39:01.820Z,38.7
2019-01-09T04:40:05.241Z,38.7
2019-01-09T04:41:04.041Z,38.7
2019-01-09T04:42:07.661Z,38.7
2019-01-09T04:43:09.255Z,38.7
2019-01-09T04:44:06.536Z,38.7
2019-01-09T04:45:06.383Z,38.7
2019-01-09T04:46:03.966Z,38.7
2019-01-09T04:47:01.757Z,38.7
2019-01-09T04:48:05.025Z,38.7
2019-01-09T04:49:04.048Z,38.8
2019-01-09T04:50:04.599Z,38.8
2019-01-09T04:51:07.183Z,38.7
2019-01-09T04:52:06.300Z,38.7
2019-01-09T04:53:07.948Z,38.7
2019-01-09T04:54:06.221Z,38.7
2019-01-09T04:55:03.365Z,38.7
2019-01-09T04:56:00.931Z,38.7
2019-01-09T04:57:00.431Z,38.7
2019-01-09T04:57:58.859Z,38.7
2019-01-09T04:58:58.112Z,38.7
2019-01-09T05:00:03.432Z,38.7
2019-01-09T05:01:02.863Z,38.7
2019-01-09T05:02:06.519Z,38.7
2019-01-09T05:03:12.225Z,38.7
2019-01-09T05:04:09.283Z,38.8
2019-01-09T05:05:06.018Z,38.7
2019-01-09T05:06:05.320Z,38.7
2019-01-09T05:07:07.929Z,38.7
2019-01-09T05:08:06.034Z,38.7
2019-01-09T05:09:03.985Z,38.7
2019-01-09T05:10:02.052Z,38.7
2019-01-09T05:10:59.901Z,38.7
2019-01-09T05:11:58.705Z,38.7
2019-01-09T05:12:56.536Z,38.7
2019-01-09T05:13:55.360Z,38.7
2019-01-09T05:14:53.529Z,38.7
2019-01-09T05:15:51.896Z,38.7
2019-01-09T05:16:49.955Z,38.7
2019-01-09T05:17:52.494Z,38.7
2019-01-09T05:18:50.191Z,38.8
2019-01-09T05:19:53.190Z,38.7
2019-01-09T05:20:52.483Z,38.7
2019-01-09T05:21:49.492Z,38.7
2019-01-09T05:22:46.169Z,38.7
2019-01-09T05:23:53.576Z,38.7
2019-01-09T05:24:54.248Z,38.7
2019-01-09T05:25:52.179Z,38.7
2019-01-09T05:26:49.075Z,38.7
2019-01-09T05:27:52.188Z,38.7
2019-01-09T05:28:54.704Z,38.8
2019-01-09T05:29:51.770Z,38.8
2019-01-09T05:30:52.930Z,38.8
2019-01-09T05:31:50.659Z,38.8
2019-01-09T05:32:56.089Z,38.8
2019-01-09T05:33:52.994Z,38.7
2019-01-09T05:34:56.574Z,38.7
2019-01-09T05:35:53.059Z,38.7
2019-01-09T05:36:58.383Z,38.7
2019-01-09T05:37:55.423Z,38.8
2019-01-09T05:38:25.432Z,38.7
2019-01-09T05:39:26.152Z,38.7
2019-01-09T05:40:32.215Z,38.7
2019-01-09T05:41:30.084Z,38.7
2019-01-09T05:42:30.149Z,38.7
2019-01-09T05:43:30.300Z,38.8
2019-01-09T05:44:29.879Z,38.7
2019-01-09T05:45:29.559Z,38.7
2019-01-09T05:46:33.587Z,38.8
2019-01-09T05:47:32.753Z,38.8
2019-01-09T05:48:31.130Z,38.8
2019-01-09T05:49:31.087Z,38.8
2019-01-09T05:50:31.994Z,38.8
2019-01-09T05:51:30.456Z,38.8
2019-01-09T05:52:28.099Z,38.8
2019-01-09T05:53:26.780Z,38.8
2019-01-09T05:54:24.047Z,38.8
2019-01-09T05:55:25.247Z,38.8
2019-01-09T05:56:27.441Z,38.8
2019-01-09T05:57:25.305Z,38.8
2019-01-09T05:58:27.259Z,38.8
2019-01-09T05:59:34.093Z,38.8
2019-01-09T06:00:31.599Z,38.8
2019-01-09T06:01:29.154Z,38.8
2019-01-09T06:02:27.858Z,38.8
2019-01-09T06:03:25.136Z,38.8
2019-01-09T06:04:24.557Z,38.8
2019-01-09T06:05:23.430Z,38.8
2019-01-09T06:06:23.059Z,38.8
2019-01-09T06:07:20.538Z,38.8
2019-01-09T06:08:17.099Z,38.8
2019-01-09T06:09:18.802Z,38.8
2019-01-09T06:10:17.045Z,38.8
2019-01-09T06:11:15.396Z,38.8
2019-01-09T06:12:12.305Z,38.8
2019-01-09T06:13:09.601Z,38.8
2019-01-09T06:14:07.311Z,38.7
2019-01-09T06:15:03.919Z,38.8
2019-01-09T06:16:02.875Z,38.7
2019-01-09T06:17:00.785Z,38.8
2019-01-09T06:17:59.576Z,38.7
2019-01-09T06:18:56.369Z,38.8
2019-01-09T06:19:58.683Z,38.8
2019-01-09T06:20:56.746Z,38.8
2019-01-09T06:21:57.864Z,38.8
2019-01-09T06:22:55.531Z,38.8
2019-01-09T06:23:59.982Z,38.8
2019-01-09T06:24:59.778Z,38.8
2019-01-09T06:25:58.149Z,38.8
2019-01-09T06:26:56.773Z,38.8
2019-01-09T06:27:54.418Z,38.7
2019-01-09T06:28:51.072Z,38.7
2019-01-09T06:29:47.581Z,38.7
2019-01-09T06:30:45.880Z,38.7
2019-01-09T06:31:42.392Z,38.7
2019-01-09T06:32:41.418Z,38.7
2019-01-09T06:33:47.316Z,38.7
2019-01-09T06:34:46.340Z,38.7
2019-01-09T06:35:46.646Z,38.7
2019-01-09T06:36:42.739Z,38.7
2019-01-09T06:37:41.007Z,38.7
2019-01-09T06:38:38.735Z,38.7
2019-01-09T06:39:38.325Z,38.7
2019-01-09T06:40:36.069Z,38.6
2019-01-09T06:41:33.412Z,38.7
2019-01-09T06:42:34.735Z,38.7
2019-01-09T06:43:34.837Z,38.7
2019-01-09T06:44:34.147Z,38.7
2019-01-09T06:45:36.367Z,38.7
2019-01-09T06:46:34.925Z,38.7
2019-01-09T06:47:32.199Z,38.7
2019-01-09T06:48:29.021Z,38.7
2019-01-09T06:49:25.839Z,38.7
2019-01-09T06:50:22.698Z,38.7
2019-01-09T06:51:19.487Z,38.7
2019-01-09T06:52:16.807Z,38.7
2019-01-09T06:53:16.166Z,38.7
2019-01-09T06:54:14.733Z,38.7
2019-01-09T06:55:12.706Z,38.7
2019-01-09T06:56:09.666Z,38.7
2019-01-09T06:57:11.075Z,38.7
2019-01-09T06:58:07.898Z,38.7
2019-01-09T06:59:06.706Z,38.7
2019-01-09T07:00:07.749Z,38.7
2019-01-09T07:01:04.706Z,38.7
2019-01-09T07:02:01.963Z,38.7
2019-01-09T07:03:05.333Z,38.6
2019-01-09T07:04:03.755Z,38.7
2019-01-09T07:05:06.185Z,38.7
2019-01-09T07:06:12.138Z,38.7
2019-01-09T07:07:08.684Z,38.7
2019-01-09T07:08:06.571Z,38.7
2019-01-09T07:09:13.855Z,38.7
2019-01-09T07:10:14.770Z,38.7
2019-01-09T07:11:22.717Z,38.7
2019-01-09T07:12:20.742Z,38.7
2019-01-09T07:13:23.271Z,38.7
2019-01-09T07:14:19.684Z,38.7
2019-01-09T07:15:21.844Z,38.7
2019-01-09T07:16:19.595Z,38.7
2019-01-09T07:17:17.413Z,38.7
2019-01-09T07:18:16.552Z,38.7
2019-01-09T07:19:12.927Z,38.7
2019-01-09T07:20:14.078Z,38.7
2019-01-09T07:21:12.239Z,38.7
2019-01-09T07:22:09.287Z,38.7
2019-01-09T07:23:06.884Z,38.7
2019-01-09T07:24:05.218Z,38.7
2019-01-09T07:25:03.511Z,38.7
2019-01-09T07:26:03.068Z,38.7
2019-01-09T07:27:01.687Z,38.7
2019-01-09T07:27:59.858Z,38.7
2019-01-09T07:29:02.369Z,38.7
2019-01-09T07:29:59.638Z,38.7
2019-01-09T07:30:56.529Z,38.7
2019-01-09T07:31:52.978Z,38.7
2019-01-09T07:32:50.175Z,38.7
2019-01-09T07:33:51.145Z,38.7
2019-01-09T07:34:56.582Z,38.7
2019-01-09T07:35:54.169Z,38.7
2019-01-09T07:36:53.345Z,38.7
2019-01-09T07:37:52.189Z,38.7
2019-01-09T07:38:52.766Z,38.7
2019-01-09T07:39:50.967Z,38.7
2019-01-09T07:40:56.084Z,38.6
2019-01-09T07:41:55.193Z,38.7
2019-01-09T07:42:54.033Z,38.6
2019-01-09T07:43:50.520Z,38.6
2019-01-09T07:44:47.812Z,38.7
2019-01-09T07:45:46.184Z,38.7
2019-01-09T07:46:48.154Z,38.6
2019-01-09T07:47:45.921Z,38.5
2019-01-09T07:48:43.823Z,38.5
2019-01-09T07:49:40.868Z,38.5
2019-01-09T07:50:37.759Z,38.5
2019-01-09T07:51:34.996Z,38.6
2019-01-09T07:52:32.652Z,38.7
2019-01-09T07:53:29.556Z,38.5
2019-01-09T07:54:27.300Z,38.5
2019-01-09T07:55:25.955Z,38.5
2019-01-09T07:56:22.755Z,38.5
2019-01-09T07:57:21.295Z,38.5
2019-01-09T07:58:19.671Z,38.5
2019-01-09T07:59:16.050Z,38.6
2019-01-09T08:00:14.102Z,38.5
2019-01-09T08:01:11.793Z,38.5
2019-01-09T08:02:08.753Z,38.5
2019-01-09T08:03:05.241Z,38.5
2019-01-09T08:04:05.553Z,38.6
2019-01-09T08:05:12.990Z,38.6
2019-01-09T08:06:14.644Z,38.6
2019-01-09T08:07:14.242Z,38.6
2019-01-09T08:08:14.727Z,38.5
2019-01-09T08:09:11.147Z,38.5
2019-01-09T08:10:07.490Z,38.6
2019-01-09T08:11:06.537Z,38.5
2019-01-09T08:12:05.912Z,38.6
2019-01-09T08:13:06.194Z,38.6
2019-01-09T08:14:07.422Z,38.5
2019-01-09T08:15:03.954Z,38.6
2019-01-09T08:16:06.178Z,38.5
2019-01-09T08:17:05.569Z,38.6
2019-01-09T08:18:02.790Z,38.6
2019-01-09T08:18:59.280Z,38.6
2019-01-09T08:19:58.959Z,38.6
2019-01-09T08:21:05.185Z,38.6
2019-01-09T08:21:05.574Z,38.6
2019-01-09T08:21:54.789Z,38.6
2019-01-09T08:22:51.385Z,38.5
2019-01-09T08:23:52.575Z,38.5
2019-01-09T08:24:53.767Z,38.6
2019-01-09T08:25:51.068Z,38.5
2019-01-09T08:26:48.252Z,38.5
2019-01-09T08:27:47.256Z,38.5
2019-01-09T08:28:47.818Z,38.5
2019-01-09T08:29:45.098Z,38.5
2019-01-09T08:30:48.539Z,38.5
2019-01-09T08:31:46.364Z,38.5
2019-01-09T08:32:43.202Z,38.5
2019-01-09T08:33:52.975Z,38.6
2019-01-09T08:34:50.577Z,38.5
2019-01-09T08:35:46.932Z,38.5
2019-01-09T08:36:44.833Z,38.6
2019-01-09T08:37:44.757Z,38.5
2019-01-09T08:38:46.237Z,38.6
2019-01-09T08:39:46.345Z,38.5
2019-01-09T08:40:44.120Z,38.5
2019-01-09T08:41:42.067Z,38.5
2019-01-09T08:42:43.495Z,38.5
2019-01-09T08:43:39.834Z,38.5
2019-01-09T08:44:39.016Z,38.5
2019-01-09T08:45:36.468Z,38.6
2019-01-09T08:46:37.698Z,38.6
2019-01-09T08:47:38.451Z,38.5
2019-01-09T08:48:40.884Z,38.5
2019-01-09T08:49:41.357Z,38.5
2019-01-09T08:50:39.219Z,38.5
2019-01-09T08:51:37.964Z,38.6
2019-01-09T08:52:36.735Z,38.5
2019-01-09T08:53:34.058Z,38.5
2019-01-09T08:54:32.304Z,38.6
2019-01-09T08:55:29.171Z,38.6
2019-01-09T08:56:25.691Z,38.6
2019-01-09T08:57:29.252Z,38.6
2019-01-09T08:58:30.359Z,38.5
2019-01-09T08:59:29.086Z,38.6
2019-01-09T09:00:32.207Z,38.6
2019-01-09T09:01:30.814Z,38.6
2019-01-09T09:02:28.626Z,38.6
2019-01-09T09:03:25.149Z,38.5
2019-01-09T09:04:23.763Z,38.6
2019-01-09T09:05:27.072Z,38.6
2019-01-09T09:06:23.380Z,38.6
2019-01-09T09:07:20.764Z,38.6
2019-01-09T09:08:18.051Z,38.5
2019-01-09T09:09:14.822Z,38.5
2019-01-09T09:10:12.873Z,38.6
2019-01-09T09:11:10.203Z,38.6
2019-01-09T09:12:10.324Z,38.6
2019-01-09T09:13:07.164Z,38.6
2019-01-09T09:14:04.956Z,38.5
2019-01-09T09:15:02.338Z,38.3
2019-01-09T09:16:02.152Z,36.3
2019-01-09T09:17:01.732Z,35.6
2019-01-09T09:17:59.948Z,34.6
2019-01-09T09:18:58.112Z,35.3
2019-01-09T09:19:55.809Z,35.7
2019-01-09T09:20:52.903Z,35.9
2019-01-09T09:21:49.564Z,36
2019-01-09T09:22:46.335Z,35.7
2019-01-09T09:23:43.872Z,36.2
2019-01-09T09:24:41.664Z,36.4
2019-01-09T09:25:38.830Z,35.5
2019-01-09T09:26:36.808Z,35.4
2019-01-09T09:27:32.465Z,35.9
2019-01-09T09:28:34.997Z,36.3
2019-01-09T09:29:32.323Z,36.4
2019-01-09T09:30:29.451Z,36.2
2019-01-09T09:31:27.529Z,36.8
2019-01-09T09:32:24.899Z,37.2
2019-01-09T09:33:25.431Z,37.3
2019-01-09T09:34:21.887Z,37.3
2019-01-09T09:35:18.859Z,37.9
2019-01-09T09:36:15.337Z,38.5
2019-01-09T09:37:11.244Z,39
2019-01-09T09:38:10.986Z,39.3
2019-01-09T09:39:06.653Z,39.6
2019-01-09T09:40:04.334Z,39.9
2019-01-09T09:41:04.098Z,39.8
2019-01-09T09:42:02.417Z,40
2019-01-09T09:42:58.422Z,40
2019-01-09T09:43:55.328Z,40
2019-01-09T09:45:00.295Z,40
2019-01-09T09:45:58.745Z,39.8
2019-01-09T09:46:57.902Z,39.8
2019-01-09T09:47:54.482Z,39.8
2019-01-09T09:48:52.934Z,39.8
2019-01-09T09:49:54.577Z,39.6
2019-01-09T09:50:52.700Z,39.5
2019-01-09T09:51:50.701Z,39.4
2019-01-09T09:52:48.281Z,39.3
2019-01-09T09:53:51.075Z,39.1
2019-01-09T09:54:47.645Z,39
2019-01-09T09:55:48.126Z,38.9
2019-01-09T09:56:53.288Z,38.8
2019-01-09T09:57:50.930Z,38.6
2019-01-09T09:58:48.374Z,38.5
2019-01-09T09:59:46.517Z,38.4
2019-01-09T10:00:42.904Z,38.3
2019-01-09T10:01:40.581Z,38.2
2019-01-09T10:02:37.221Z,38.1
2019-01-09T10:03:39.542Z,37.9
2019-01-09T10:04:41.896Z,37.9
2019-01-09T10:05:40.773Z,37.7
2019-01-09T10:06:38.435Z,37.6
2019-01-09T10:07:40.371Z,37.5
2019-01-09T10:08:37.392Z,37.4
2019-01-09T10:09:35.069Z,37.3
2019-01-09T10:10:35.193Z,37.2
2019-01-09T10:11:31.706Z,37
2019-01-09T10:12:30.804Z,37
2019-01-09T10:13:38.388Z,36.9
2019-01-09T10:14:39.074Z,36.8
2019-01-09T10:15:37.926Z,36.7
2019-01-09T10:16:35.169Z,36.6
2019-01-09T10:17:34.148Z,36.5
2019-01-09T10:18:37.805Z,36.4
2019-01-09T10:19:35.180Z,36.3
2019-01-09T10:20:32.741Z,36.3
2019-01-09T10:21:29.675Z,36.3
2019-01-09T10:22:28.421Z,36.1
2019-01-09T10:23:33.065Z,36.1
2019-01-09T10:24:29.723Z,36
2019-01-09T10:25:31.170Z,36
2019-01-09T10:26:30.575Z,35.8
2019-01-09T10:27:29.551Z,35.9
2019-01-09T10:28:26.958Z,35.8
2019-01-09T10:29:24.516Z,35.7
2019-01-09T10:30:22.884Z,35.6
2019-01-09T10:31:24.999Z,35.6
2019-01-09T10:32:22.288Z,35.6
2019-01-09T10:33:34.722Z,35.5
2019-01-09T10:34:34.033Z,35.4
2019-01-09T10:35:33.324Z,35.4
2019-01-09T10:36:30.980Z,35.4
2019-01-09T10:37:28.684Z,35.3
2019-01-09T10:38:27.264Z,35.2
2019-01-09T10:39:24.978Z,35.1
2019-01-09T10:40:35.875Z,35.1
2019-01-09T10:40:36.302Z,35.1
2019-01-09T10:41:26.183Z,35.1
2019-01-09T10:42:32.028Z,35
2019-01-09T10:43:29.879Z,35
2019-01-09T10:44:34.704Z,35
2019-01-09T10:45:31.588Z,34.9
2019-01-09T10:46:29.737Z,34.9
2019-01-09T10:47:27.624Z,34.8
2019-01-09T10:48:26.541Z,34.7
2019-01-09T10:49:27.860Z,34.6
2019-01-09T10:50:29.208Z,34.6
2019-01-09T10:51:26.277Z,34.6
2019-01-09T10:52:29.197Z,34.5
2019-01-09T10:53:28.953Z,34.6
2019-01-09T10:54:31.171Z,34.5
2019-01-09T10:55:29.836Z,34.4
2019-01-09T10:56:30.120Z,34.4
2019-01-09T10:57:31.648Z,34.4
2019-01-09T10:58:29.315Z,34.4
2019-01-09T10:59:31.753Z,34.4
2019-01-09T11:00:30.036Z,34.3
2019-01-09T11:01:30.171Z,34.2
2019-01-09T11:02:27.817Z,34.3
2019-01-09T11:03:28.777Z,34.1
2019-01-09T11:04:26.428Z,34.1
2019-01-09T11:05:24.632Z,34.1
2019-01-09T11:06:23.732Z,34.1
2019-01-09T11:07:29.662Z,34.1
2019-01-09T11:08:27.988Z,34
2019-01-09T11:09:26.168Z,34
2019-01-09T11:10:23.623Z,34
2019-01-09T11:11:21.367Z,33.9
2019-01-09T11:12:19.565Z,34
2019-01-09T11:13:18.494Z,34
2019-01-09T11:14:15.997Z,33.9
2019-01-09T11:15:14.729Z,33.8
2019-01-09T11:16:16.495Z,33.8
2019-01-09T11:17:17.213Z,33.8
2019-01-09T11:18:16.082Z,33.7
2019-01-09T11:19:18.570Z,33.7
2019-01-09T11:20:16.246Z,33.7
2019-01-09T11:21:14.843Z,33.6
2019-01-09T11:22:12.091Z,33.6
2019-01-09T11:23:16.218Z,33.6
2019-01-09T11:24:16.050Z,33.5
2019-01-09T11:25:14.015Z,33.5
2019-01-09T11:26:15.290Z,33.5
2019-01-09T11:27:14.473Z,33.5
2019-01-09T11:28:20.077Z,33.5
2019-01-09T11:29:20.334Z,33.5
2019-01-09T11:30:17.874Z,33.5
2019-01-09T11:31:16.055Z,33.5
2019-01-09T11:32:16.355Z,33.5
2019-01-09T11:33:16.034Z,33.2
2019-01-09T11:34:13.670Z,33.5
2019-01-09T11:35:13.314Z,33.5
2019-01-09T11:36:16.433Z,33.6
2019-01-09T11:37:15.140Z,33.6
2019-01-09T11:38:20.014Z,33.6
2019-01-09T11:39:19.233Z,33.6
2019-01-09T11:40:18.943Z,33.6
2019-01-09T11:41:17.150Z,33.6
2019-01-09T11:42:16.809Z,33.7
2019-01-09T11:43:15.028Z,33.7
2019-01-09T11:44:14.253Z,33.7
2019-01-09T11:45:11.720Z,33.7
2019-01-09T11:46:09.036Z,33.7
2019-01-09T11:47:07.050Z,33.7
2019-01-09T11:48:07.694Z,33.7
2019-01-09T11:49:06.925Z,33.8
2019-01-09T11:50:04.647Z,33.8
2019-01-09T11:51:02.769Z,33.9
2019-01-09T11:52:02.909Z,33.9
2019-01-09T11:53:02.452Z,33.9
2019-01-09T11:54:02.605Z,34
2019-01-09T11:55:00.902Z,33.9
2019-01-09T11:55:58.785Z,34
2019-01-09T11:56:58.381Z,34
2019-01-09T11:57:59.184Z,34
2019-01-09T11:59:03.532Z,34.1
2019-01-09T12:00:01.158Z,34.1
2019-01-09T12:01:00.012Z,34.2
2019-01-09T12:01:58.666Z,34.1
2019-01-09T12:02:57.647Z,34.2
2019-01-09T12:03:55.944Z,34.2
2019-01-09T12:04:56.330Z,34.3
2019-01-09T12:05:55.118Z,34.2
2019-01-09T12:06:52.475Z,34.3
2019-01-09T12:07:54.712Z,34.4
2019-01-09T12:08:53.035Z,34.3
2019-01-09T12:09:53.340Z,34.4
2019-01-09T12:10:54.493Z,34.4
2019-01-09T12:11:21.990Z,34.4
2019-01-09T12:12:18.969Z,34.4
2019-01-09T12:13:22.901Z,34.5
2019-01-09T12:14:20.803Z,34.5
2019-01-09T12:15:20.011Z,34.5
2019-01-09T12:16:22.695Z,34.5
2019-01-09T12:17:24.131Z,34.5
2019-01-09T12:18:25.079Z,34.5
2019-01-09T12:19:23.102Z,34.5
2019-01-09T12:20:28.212Z,34.5
2019-01-09T12:21:26.009Z,34.5
2019-01-09T12:22:29.765Z,34.5
2019-01-09T12:23:32.261Z,34.5
2019-01-09T12:24:33.405Z,34.5
2019-01-09T12:25:35.067Z,34.6
2019-01-09T12:26:32.344Z,34.5
2019-01-09T12:27:35.298Z,34.6
2019-01-09T12:28:37.367Z,34.6
2019-01-09T12:29:37.476Z,34.6
2019-01-09T12:30:34.766Z,34.5
2019-01-09T12:31:31.947Z,34.6
2019-01-09T12:32:29.580Z,34.6
2019-01-09T12:33:27.030Z,34.5
2019-01-09T12:34:25.434Z,34.5
2019-01-09T12:35:22.653Z,34.5
2019-01-09T12:36:23.405Z,33.5
2019-01-09T12:37:22.255Z,30.3
2019-01-09T12:38:22.495Z,30.5
2019-01-09T12:39:23.828Z,30.6
2019-01-09T12:40:22.869Z,30.2
2019-01-09T12:41:20.504Z,30.6
2019-01-09T12:42:24.492Z,30.4
2019-01-09T12:43:27.209Z,29.7
2019-01-09T12:44:24.154Z,29.8
2019-01-09T12:45:21.097Z,29.1
2019-01-09T12:46:18.736Z,29.9
2019-01-09T12:47:16.426Z,29.6
2019-01-09T12:48:13.387Z,30.4
2019-01-09T12:49:12.856Z,31.7
2019-01-09T12:50:14.214Z,31.8
2019-01-09T12:51:16.715Z,32.9
2019-01-09T12:52:17.093Z,33.5
2019-01-09T12:53:20.897Z,33.9
2019-01-09T12:54:25.801Z,34.3
2019-01-09T12:55:22.524Z,34.7
2019-01-09T12:56:19.341Z,35.2
2019-01-09T12:57:17.730Z,35.6
2019-01-09T12:58:15.618Z,36
2019-01-09T12:59:21.372Z,36.2
2019-01-09T12:59:21.812Z,36.2
2019-01-09T13:00:11.622Z,36.4
2019-01-09T13:01:11.166Z,36.6
2019-01-09T13:02:15.161Z,36.8
2019-01-09T13:03:12.531Z,37
2019-01-09T13:04:09.921Z,37.3
2019-01-09T13:05:07.041Z,37.3
2019-01-09T13:06:05.785Z,37.3
2019-01-09T13:07:03.403Z,37.3
2019-01-09T13:08:11.804Z,37.4
2019-01-09T13:09:22.164Z,37.3